Time;durP1;ratioP1;P1;durP2;ratioP2;P2;SDS_P1;SDS_P2;PMS_P1;PMS_P2;Temp;Humidity;BMP_temperature;BMP_pressure;BME280_temperature;BME280_humidity;BME280_pressure;Samples;Min_cycle;Max_cycle;Signal;HPM_P1;HPM_P2
2022/08/11 00:01:53;;;;;;;6.80;3.47;;;;;;;19.95;55.35;102137.19;5038170;28;20068;-73
2022/08/11 00:04:22;;;;;;;5.43;3.38;;;;;;;19.82;55.36;102127.09;5032451;28;20036;-73
2022/08/11 00:06:48;;;;;;;6.10;3.40;;;;;;;19.81;54.86;102141.22;5032955;28;20026;-73
2022/08/11 00:09:23;;;;;;;4.00;2.80;;;;;;;19.76;55.40;102139.72;5042511;28;20040;-72
2022/08/11 00:11:52;;;;;;;5.68;3.17;;;;;;;19.69;56.62;102132.97;5040398;28;20025;-73
2022/08/11 00:14:22;;;;;;;4.70;3.20;;;;;;;19.71;57.49;102139.91;5039437;28;20064;-73
2022/08/11 00:17:11;;;;;;;6.63;3.60;;;;;;;19.68;55.66;102132.09;5046363;28;20404;-73
2022/08/11 00:19:41;;;;;;;5.07;3.38;;;;;;;19.60;55.29;102135.03;5048469;28;20035;-73
2022/08/11 00:22:09;;;;;;;6.13;3.42;;;;;;;19.50;55.94;102132.81;5043945;28;20025;-73
2022/08/11 00:24:39;;;;;;;5.68;3.33;;;;;;;19.48;57.22;102129.38;5046154;28;20412;-72
2022/08/11 00:27:05;;;;;;;7.80;3.20;;;;;;;19.46;56.38;102136.50;5036611;28;20029;-73
2022/08/11 00:29:31;;;;;;;5.85;3.28;;;;;;;19.37;56.65;102133.31;5044376;28;20119;-72
2022/08/11 00:32:00;;;;;;;3.90;3.00;;;;;;;19.38;56.26;102140.31;5039423;28;20048;-73
2022/08/11 00:34:32;;;;;;;7.40;3.30;;;;;;;19.35;56.47;102139.56;5038307;28;20025;-72
2022/08/11 00:37:05;;;;;;;4.05;3.28;;;;;;;19.32;56.56;102134.41;5033100;28;20029;-73
2022/08/11 00:39:33;;;;;;;6.95;3.50;;;;;;;19.28;57.00;102135.44;5037649;28;20514;-73
2022/08/11 00:42:26;;;;;;;3.70;3.05;;;;;;;19.19;55.70;102128.72;5040653;28;20034;-73
2022/08/11 00:45:06;;;;;;;7.60;3.70;;;;;;;19.20;56.66;102134.91;5013857;28;20076;-73
2022/08/11 00:47:32;;;;;;;8.45;3.85;;;;;;;19.06;57.41;102135.41;5038194;28;20119;-73
2022/08/11 00:50:24;;;;;;;4.10;3.28;;;;;;;19.07;56.63;102124.81;5039127;28;20103;-72
2022/08/11 00:53:26;;;;;;;4.32;3.40;;;;;;;19.06;57.00;102132.78;5026500;28;20441;-72
2022/08/11 00:56:14;;;;;;;14.02;3.70;;;;;;;19.01;57.17;102138.25;5030128;28;20064;-73
2022/08/11 00:59:03;;;;;;;4.22;3.38;;;;;;;18.95;57.04;102144.63;5025942;28;20026;-73
2022/08/11 01:01:37;;;;;;;4.93;3.38;;;;;;;18.96;57.37;102134.91;5031568;28;20361;-72
2022/08/11 01:04:40;;;;;;;10.25;3.40;;;;;;;18.94;57.15;102129.69;5034254;28;20032;-72
2022/08/11 01:07:20;;;;;;;6.82;3.47;;;;;;;18.90;57.54;102128.09;5020505;28;20084;-72
2022/08/11 01:09:51;;;;;;;3.88;3.47;;;;;;;18.82;58.36;102124.88;5032293;28;20034;-72
2022/08/11 01:12:37;;;;;;;6.32;3.42;;;;;;;18.79;58.01;102117.06;5029098;28;20033;-72
2022/08/11 01:15:38;;;;;;;6.25;3.58;;;;;;;18.75;57.38;102126.03;5032687;28;20487;-72
2022/08/11 01:18:25;;;;;;;5.15;3.45;;;;;;;18.67;58.85;102120.09;5025099;28;20120;-72
2022/08/11 01:21:24;;;;;;;5.15;3.42;;;;;;;18.68;58.36;102129.78;5030517;28;20045;-72
2022/08/11 01:24:45;;;;;;;6.68;3.67;;;;;;;18.60;57.88;102122.13;5030654;28;20033;-72
2022/08/11 01:27:40;;;;;;;4.95;3.65;;;;;;;18.57;58.35;102124.00;5027903;28;20029;-72
2022/08/11 01:30:16;;;;;;;5.03;3.40;;;;;;;18.48;59.25;102120.81;5030675;28;20173;-73
2022/08/11 01:33:19;;;;;;;5.82;3.70;;;;;;;18.56;58.90;102140.78;5031600;28;20025;-72
2022/08/11 01:36:14;;;;;;;5.82;3.80;;;;;;;18.49;58.62;102141.00;5030580;28;20037;-72
2022/08/11 01:39:27;;;;;;;6.35;3.25;;;;;;;18.37;58.84;102137.94;5029081;28;20043;-72
2022/08/11 01:45:06;;;;;;;4.95;3.85;;;;;;;18.31;59.34;102148.72;5031398;28;20128;-72
2022/08/11 01:47:50;;;;;;;5.57;3.67;;;;;;;18.25;60.25;102145.38;5029393;28;20120;-72
2022/08/11 01:50:54;;;;;;;6.20;4.00;;;;;;;18.26;59.73;102140.97;5026802;28;20052;-72
2022/08/11 01:53:33;;;;;;;4.85;3.83;;;;;;;18.24;59.69;102142.78;5026150;28;20033;-72
2022/08/11 01:56:36;;;;;;;7.70;4.68;;;;;;;18.24;58.67;102138.38;5021134;28;20358;-72
2022/08/11 01:59:12;;;;;;;5.18;3.97;;;;;;;18.19;60.49;102127.13;5028974;28;20037;-72
2022/08/11 02:01:57;;;;;;;6.47;4.25;;;;;;;18.23;59.45;102143.72;5029834;28;20108;-72
2022/08/11 02:04:44;;;;;;;6.68;4.15;;;;;;;18.21;59.77;102137.59;5019348;28;20087;-73
2022/08/11 02:07:49;;;;;;;9.15;4.10;;;;;;;18.18;59.26;102146.53;5029187;28;20041;-72
2022/08/11 02:13:40;;;;;;;5.85;3.80;;;;;;;18.10;60.18;102139.78;5022457;28;20040;-72
2022/08/11 02:16:16;;;;;;;6.13;3.90;;;;;;;18.00;60.39;102141.84;5029433;28;20025;-73
2022/08/11 02:24:43;;;;;;;5.05;3.63;;;;;;;17.90;61.10;102140.44;5029971;28;20555;-72
2022/08/11 02:27:19;;;;;;;10.00;4.18;;;;;;;17.81;61.44;102138.97;5030412;28;20044;-72
2022/08/11 02:30:03;;;;;;;8.13;4.45;;;;;;;17.77;60.82;102125.03;5028706;28;20029;-72
2022/08/11 02:35:27;;;;;;;7.07;4.50;;;;;;;17.81;61.56;102131.06;5023119;28;20126;-72
2022/08/11 02:38:24;;;;;;;7.70;4.65;;;;;;;17.83;60.61;102131.03;5028177;28;20032;-73
2022/08/11 02:44:27;;;;;;;8.43;4.40;;;;;;;17.77;60.90;102122.38;5028377;28;20049;-73
2022/08/11 02:47:04;;;;;;;6.05;4.20;;;;;;;17.75;62.61;102124.16;5029074;28;20052;-72
2022/08/11 02:49:55;;;;;;;7.20;4.40;;;;;;;17.76;61.67;102127.69;5030997;28;20424;-73
2022/08/11 02:52:34;;;;;;;5.07;4.13;;;;;;;17.72;61.20;102123.41;5016274;28;20443;-72
2022/08/11 02:55:26;;;;;;;6.82;4.40;;;;;;;17.65;61.39;102122.75;5030298;28;20064;-72
2022/08/11 02:57:54;;;;;;;6.32;3.90;;;;;;;17.62;61.52;102128.13;5030138;28;20037;-72
2022/08/11 03:00:20;;;;;;;6.70;4.15;;;;;;;17.57;61.65;102124.78;5028233;28;20032;-72
2022/08/11 03:03:15;;;;;;;9.02;4.47;;;;;;;17.56;61.77;102125.72;5030278;28;20033;-73
2022/08/11 03:05:59;;;;;;;5.93;4.22;;;;;;;17.59;61.84;102128.22;5042967;28;20028;-73
2022/08/11 03:08:38;;;;;;;5.75;3.97;;;;;;;17.54;62.14;102119.59;5030525;28;20040;-73
2022/08/11 03:17:35;;;;;;;8.57;4.40;;;;;;;17.39;63.37;102133.28;5032352;28;20068;-73
2022/08/11 03:20:16;;;;;;;7.15;4.60;;;;;;;17.37;63.44;102130.69;5033826;28;20037;-73
2022/08/11 03:22:56;;;;;;;5.40;4.00;;;;;;;17.34;63.60;102132.56;5033725;28;20508;-73
2022/08/11 03:25:31;;;;;;;6.35;4.38;;;;;;;17.33;63.88;102126.44;5026395;28;20037;-73
2022/08/11 03:28:11;;;;;;;7.95;4.60;;;;;;;17.26;62.93;102125.75;5029343;28;20080;-72
2022/08/11 03:31:18;;;;;;;4.70;4.10;;;;;;;17.29;62.21;102130.06;5028542;28;20029;-73
2022/08/11 03:34:01;;;;;;;5.88;5.00;;;;;;;17.22;63.83;102131.16;4967991;28;20515;-73
2022/08/11 03:36:49;;;;;;;6.00;4.60;;;;;;;17.20;62.93;102131.22;5020496;28;20030;-73
2022/08/11 03:39:27;;;;;;;5.28;4.55;;;;;;;17.19;63.61;102134.75;5033820;28;20057;-73
2022/08/11 03:42:29;;;;;;;10.65;4.78;;;;;;;17.13;63.49;102128.81;5030667;28;20034;-72
2022/08/11 03:45:20;;;;;;;6.30;4.50;;;;;;;17.14;62.94;102146.38;5011801;28;20124;-72
2022/08/11 03:48:23;;;;;;;5.80;4.70;;;;;;;17.10;62.85;102132.38;5031255;28;20025;-73
2022/08/11 03:51:05;;;;;;;7.57;4.57;;;;;;;17.00;63.31;102129.19;5023102;28;20044;-72
2022/08/11 03:54:27;;;;;;;9.00;5.07;;;;;;;16.98;63.24;102131.00;5033056;28;20033;-72
2022/08/11 03:57:43;;;;;;;6.07;4.55;;;;;;;16.91;63.37;102124.19;4929836;29;20537;-72
2022/08/11 04:00:28;;;;;;;9.20;4.88;;;;;;;16.84;64.53;102123.50;4908086;29;20051;-72
2022/08/11 04:03:21;;;;;;;8.85;4.88;;;;;;;16.81;63.95;102128.88;5023956;28;20065;-72
2022/08/11 04:06:14;;;;;;;7.75;5.45;;;;;;;16.73;64.32;102128.19;5020042;28;20029;-73
2022/08/11 04:09:10;;;;;;;6.43;4.97;;;;;;;16.72;64.60;102129.09;5030605;28;20033;-72
2022/08/11 04:11:59;;;;;;;6.63;5.00;;;;;;;16.66;64.89;102133.69;5032759;28;20152;-72
2022/08/11 04:18:18;;;;;;;9.45;5.40;;;;;;;16.59;64.87;102128.59;5031169;28;20538;-72
2022/08/11 04:21:00;;;;;;;7.68;5.47;;;;;;;16.53;65.53;102127.88;5032819;28;20492;-72
2022/08/11 04:24:11;;;;;;;8.02;5.60;;;;;;;16.49;64.74;102110.47;5031548;28;20029;-72
2022/08/11 04:27:08;;;;;;;7.60;5.53;;;;;;;16.59;65.35;102125.09;5030682;28;20393;-72
2022/08/11 04:29:54;;;;;;;6.78;5.65;;;;;;;16.58;65.36;102123.38;5031642;28;20420;-72
2022/08/11 04:32:40;;;;;;;9.65;5.63;;;;;;;16.54;66.52;102130.47;5032650;28;20385;-72
2022/08/11 04:35:31;;;;;;;6.80;5.20;;;;;;;16.57;66.78;102129.53;5032062;28;20042;-72
2022/08/11 04:38:07;;;;;;;9.05;5.20;;;;;;;16.50;65.97;102134.09;5032898;28;20033;-72
2022/08/11 04:40:53;;;;;;;10.35;5.60;;;;;;;16.53;65.95;102123.47;5033050;28;20068;-72
2022/08/11 04:43:37;;;;;;;9.52;5.65;;;;;;;16.56;66.72;102128.66;5032716;28;20128;-72
2022/08/11 04:46:29;;;;;;;8.38;6.03;;;;;;;16.62;66.26;102130.28;5032451;28;20521;-72
2022/08/11 05:02:04;;;;;;;15.20;6.40;;;;;;;16.82;65.29;102121.81;5033313;28;20040;-72
2022/08/11 05:08:09;;;;;;;9.30;5.50;;;;;;;16.87;64.75;102138.34;5023528;28;20041;-72
2022/08/11 05:10:53;;;;;;;28.70;6.10;;;;;;;16.94;64.68;102132.00;5030156;28;20041;-72
2022/08/11 05:37:02;;;;;;;9.93;5.67;;;;;;;17.48;63.27;102133.84;5025882;28;20143;-72
2022/08/11 05:56:20;;;;;;;7.85;5.78;;;;;;;17.96;63.08;102137.59;5028814;28;20136;-72
2022/08/11 05:58:51;;;;;;;11.23;5.85;;;;;;;18.04;62.27;102124.16;5031388;28;20381;-72
2022/08/11 06:01:29;;;;;;;8.55;5.85;;;;;;;18.12;62.32;102127.41;5029907;28;20036;-72
2022/08/11 06:04:15;;;;;;;12.07;6.18;;;;;;;18.12;61.93;102125.63;5031163;28;20481;-73
2022/08/11 06:07:05;;;;;;;9.20;5.93;;;;;;;18.25;61.76;102132.19;5029915;28;20030;-73
2022/08/11 06:09:32;;;;;;;11.75;6.22;;;;;;;18.34;61.95;102138.91;5028960;28;20409;-72
2022/08/11 06:12:01;;;;;;;12.13;6.05;;;;;;;18.40;61.63;102137.81;5029130;28;20424;-72
2022/08/11 06:14:28;;;;;;;9.52;6.20;;;;;;;18.44;60.69;102135.03;5030673;28;20076;-72
2022/08/11 06:17:00;;;;;;;10.70;6.07;;;;;;;18.48;60.88;102130.50;5030800;28;20508;-72
2022/08/11 06:19:38;;;;;;;7.38;5.65;;;;;;;18.59;61.13;102130.97;5029633;28;20588;-72
2022/08/11 06:22:05;;;;;;;9.05;5.57;;;;;;;18.73;60.04;102143.69;5026967;28;20025;-73
2022/08/11 06:24:31;;;;;;;13.85;5.72;;;;;;;18.77;60.31;102140.03;5031044;28;20044;-73
2022/08/11 06:26:56;;;;;;;10.93;5.93;;;;;;;18.86;60.12;102138.81;5032086;28;20021;-72
2022/08/11 06:29:23;;;;;;;8.70;5.60;;;;;;;18.90;59.89;102136.03;5030462;28;20025;-73
2022/08/11 06:32:01;;;;;;;6.93;5.50;;;;;;;19.02;59.38;102136.47;5031029;28;20462;-73
2022/08/11 06:34:32;;;;;;;9.88;5.90;;;;;;;19.10;60.02;102139.69;5031241;28;20022;-73
2022/08/11 06:37:19;;;;;;;10.75;5.88;;;;;;;19.18;58.79;102141.09;5031081;28;20037;-73
2022/08/11 06:40:08;;;;;;;9.38;5.20;;;;;;;19.27;59.11;102137.25;5031738;28;20029;-72
2022/08/11 06:42:49;;;;;;;10.90;5.20;;;;;;;19.35;58.87;102140.41;5026896;28;20050;-74
2022/08/11 06:45:30;;;;;;;7.60;5.50;;;;;;;19.45;58.29;102145.34;5032939;28;20477;-74
2022/08/11 06:47:59;;;;;;;10.00;5.60;;;;;;;19.53;57.84;102143.28;5032923;28;20113;-74
2022/08/11 06:53:11;;;;;;;8.30;5.32;;;;;;;19.71;57.28;102149.63;5034606;28;20047;-74
2022/08/11 07:01:22;;;;;;;12.27;5.50;;;;;;;19.95;56.70;102150.41;5025251;28;20095;-74
2022/08/11 07:03:59;;;;;;;13.25;5.78;;;;;;;20.01;56.29;102150.13;5034636;28;20034;-75
2022/08/11 07:06:42;;;;;;;12.90;5.28;;;;;;;20.10;56.15;102144.44;5033470;28;20029;-75
2022/08/11 07:29:13;;;;;;;8.38;5.22;;;;;;;20.88;53.77;102140.16;5022369;28;20056;-75
2022/08/11 07:31:44;;;;;;;11.65;5.57;;;;;;;20.95;53.34;102141.56;5034308;28;20045;-75
2022/08/11 07:34:23;;;;;;;10.50;5.03;;;;;;;21.05;53.04;102137.56;5034359;28;20033;-76
2022/08/11 07:36:55;;;;;;;9.80;5.10;;;;;;;21.15;52.75;102141.50;5034808;28;20432;-76
2022/08/11 07:39:27;;;;;;;11.02;5.43;;;;;;;21.24;52.35;102146.38;5031520;28;20021;-75
2022/08/11 07:41:57;;;;;;;7.53;4.90;;;;;;;21.35;51.43;102139.72;5034658;28;20473;-75
2022/08/11 07:44:30;;;;;;;8.07;4.97;;;;;;;21.37;51.15;102144.03;5033780;28;20134;-75
2022/08/11 07:52:31;;;;;;;11.20;5.45;;;;;;;21.63;50.79;102147.19;5022602;28;20052;-75
2022/08/11 07:55:11;;;;;;;8.05;5.03;;;;;;;21.74;49.83;102135.13;5032949;28;20155;-75
2022/08/11 08:19:39;;;;;;;8.60;5.07;;;;;;;22.66;48.10;102141.00;5022044;28;20028;-73
2022/08/11 08:22:05;;;;;;;8.75;4.90;;;;;;;22.72;47.48;102144.25;5031796;28;20064;-72
2022/08/11 08:24:32;;;;;;;10.80;5.00;;;;;;;22.80;47.79;102139.41;5032795;28;20091;-73
2022/08/11 08:26:58;;;;;;;8.35;5.00;;;;;;;22.92;48.21;102138.69;5033300;28;20034;-73
2022/08/11 08:32:11;;;;;;;8.63;5.35;;;;;;;23.12;47.40;102138.50;5034121;28;20095;-73
2022/08/11 08:34:39;;;;;;;11.38;5.20;;;;;;;23.19;47.66;102135.50;5032092;28;20033;-73
2022/08/11 08:37:06;;;;;;;14.20;5.32;;;;;;;23.27;47.00;102139.44;5032754;28;20132;-73
2022/08/11 08:39:33;;;;;;;6.13;4.75;;;;;;;23.40;45.96;102141.41;5032445;28;20496;-73
2022/08/11 08:42:01;;;;;;;9.48;4.82;;;;;;;23.55;45.82;102133.41;5032862;28;20053;-73
2022/08/11 08:44:30;;;;;;;9.15;4.93;;;;;;;23.61;44.32;102137.53;5030383;28;20060;-73
2022/08/11 08:46:59;;;;;;;9.38;5.00;;;;;;;23.71;43.61;102133.41;5033364;28;20029;-73
2022/08/11 08:49:30;;;;;;;9.82;4.65;;;;;;;23.71;45.17;102130.75;5032307;28;20068;-73
2022/08/11 08:52:00;;;;;;;12.30;5.00;;;;;;;23.86;45.26;102136.13;5032126;28;20104;-73
2022/08/11 08:54:32;;;;;;;9.32;4.60;;;;;;;23.94;44.96;102126.72;5030553;28;20028;-73
2022/08/11 08:57:01;;;;;;;7.13;4.53;;;;;;;23.95;44.02;102124.91;5033260;28;20032;-73
2022/08/11 08:59:27;;;;;;;8.80;4.95;;;;;;;24.09;43.26;102124.09;5032292;28;20033;-73
2022/08/11 09:02:02;;;;;;;6.80;4.80;;;;;;;24.20;43.62;102133.16;5032904;28;20481;-72
2022/08/11 09:04:29;;;;;;;12.50;4.88;;;;;;;24.33;43.08;102129.72;5030508;28;20044;-73
2022/08/11 09:06:58;;;;;;;8.60;4.55;;;;;;;24.46;42.41;102133.38;5031496;28;20021;-73
2022/08/11 09:09:25;;;;;;;9.25;4.50;;;;;;;24.55;42.96;102126.63;5032230;28;20389;-73
2022/08/11 09:11:54;;;;;;;11.52;4.72;;;;;;;24.71;42.80;102122.91;5032001;28;20025;-73
2022/08/11 09:14:22;;;;;;;7.70;4.65;;;;;;;24.80;42.14;102121.47;5018443;28;20099;-73
2022/08/11 09:16:49;;;;;;;8.70;4.80;;;;;;;24.94;41.25;102124.09;5029761;28;20022;-73
2022/08/11 09:19:18;;;;;;;6.70;4.60;;;;;;;25.06;40.87;102125.16;5033486;28;20040;-73
2022/08/11 09:26:58;;;;;;;6.47;4.47;;;;;;;25.17;40.36;102124.47;5036902;28;20025;-73
2022/08/11 09:27:19;;;;;;;9.77;4.20;;;;;;;25.49;40.19;102121.53;5027547;28;20087;-73
2022/08/11 09:29:45;;;;;;;9.10;4.82;;;;;;;25.61;40.33;102105.53;5032810;28;20075;-73
2022/08/11 09:32:11;;;;;;;6.15;4.40;;;;;;;25.84;40.10;102105.84;5031659;28;20032;-73
2022/08/11 09:34:38;;;;;;;11.05;4.65;;;;;;;25.97;39.86;102108.53;5031960;28;20013;-73
2022/08/11 09:45:21;;;;;;;7.50;3.92;;;;;;;26.51;36.50;102093.13;5029573;28;20049;-73
2022/08/11 09:47:47;;;;;;;8.57;4.03;;;;;;;26.63;36.62;102096.75;5032124;28;20025;-73
2022/08/11 09:50:15;;;;;;;7.93;4.43;;;;;;;26.74;36.57;102094.16;5031977;28;20022;-73
2022/08/11 09:52:41;;;;;;;8.73;4.00;;;;;;;26.66;36.79;102090.34;5031204;28;20030;-72
2022/08/11 09:55:10;;;;;;;7.55;4.45;;;;;;;26.74;35.96;102093.31;5030172;28;20026;-73
2022/08/11 10:00:42;;;;;;;4.53;3.85;;;;;;;26.94;36.18;102084.66;5029085;28;20508;-73
2022/08/11 10:03:20;;;;;;;10.27;4.32;;;;;;;27.14;35.79;102090.41;5032221;28;20067;-73
2022/08/11 10:08:39;;;;;;;6.57;4.47;;;;;;;27.24;34.51;102092.31;5031537;28;20049;-73
2022/08/11 10:11:11;;;;;;;8.50;4.20;;;;;;;27.32;35.60;102083.69;5028838;28;20394;-73
2022/08/11 10:16:28;;;;;;;6.97;4.15;;;;;;;27.46;34.38;102082.66;5032640;28;20041;-73
2022/08/11 10:18:57;;;;;;;6.78;4.03;;;;;;;27.60;35.30;102076.25;5031797;28;20049;-78
2022/08/11 10:21:41;;;;;;;7.20;4.10;;;;;;;27.70;34.25;102080.81;5033214;28;20044;-73
2022/08/11 10:26:53;;;;;;;6.53;4.03;;;;;;;27.76;34.15;102071.41;5030079;28;20087;-72
2022/08/11 10:35:13;;;;;;;6.47;4.13;;;;;;;28.26;33.54;102068.50;5031165;28;20384;-74
2022/08/11 10:37:39;;;;;;;7.45;4.20;;;;;;;28.36;32.57;102066.78;5031187;28;20025;-73
2022/08/11 10:40:07;;;;;;;8.98;4.22;;;;;;;28.44;31.88;102072.41;5030579;28;20491;-73
2022/08/11 10:48:04;;;;;;;6.15;4.18;;;;;;;28.71;31.48;102069.31;5039035;28;20044;-74
2022/08/11 10:58:47;;;;;;;14.00;5.05;;;;;;;29.34;31.09;102050.75;5031589;28;20032;-74
2022/08/11 11:01:21;;;;;;;6.32;4.10;;;;;;;29.36;32.04;102055.00;5031141;28;20049;-73
2022/08/11 11:03:51;;;;;;;10.30;4.60;;;;;;;29.57;32.79;102048.81;5030688;28;20038;-74
2022/08/11 11:06:27;;;;;;;6.75;3.90;;;;;;;29.68;32.78;102038.00;5031769;28;20057;-73
2022/08/11 11:09:16;;;;;;;6.88;4.25;;;;;;;29.85;31.69;102042.75;5030804;28;20465;-73
2022/08/11 11:18:03;;;;;;;5.32;3.55;;;;;;;30.26;28.24;102034.81;5019847;28;20129;-73
2022/08/11 11:20:41;;;;;;;6.50;3.60;;;;;;;30.46;28.13;102039.25;5025731;28;20032;-73
2022/08/11 11:23:15;;;;;;;6.57;3.65;;;;;;;30.52;27.14;102032.47;5031153;28;20029;-73
2022/08/11 11:26:08;;;;;;;5.25;3.17;;;;;;;30.65;28.60;102027.69;5030758;28;20037;-73
2022/08/11 11:28:43;;;;;;;;;;;;;;;30.83;28.91;102044.03;5032603;28;20036;-74
2022/08/11 11:31:32;;;;;;;4.82;3.30;;;;;;;30.95;26.64;102039.38;5034537;28;19960;-73
2022/08/11 11:34:26;;;;;;;5.22;3.45;;;;;;;31.03;27.81;102036.81;5034564;28;20039;-73
2022/08/11 11:36:55;;;;;;;6.53;3.35;;;;;;;31.12;26.41;102038.66;5034129;28;20029;-73
2022/08/11 11:39:24;;;;;;;4.35;3.45;;;;;;;31.22;24.95;102026.03;5033508;28;20108;-73
2022/08/11 11:41:52;;;;;;;6.78;3.60;;;;;;;31.32;27.31;102020.66;5034957;28;20041;-74
2022/08/11 11:44:19;;;;;;;6.60;3.85;;;;;;;31.41;26.69;102030.59;5034565;28;20044;-74
2022/08/11 11:46:45;;;;;;;6.05;3.47;;;;;;;31.42;24.58;102021.53;5034095;28;20052;-73
2022/08/11 11:49:14;;;;;;;5.38;3.58;;;;;;;31.64;25.74;102019.50;5034665;28;20029;-74
2022/08/11 11:51:40;;;;;;;5.20;3.40;;;;;;;32.01;24.92;102026.78;5033469;28;20035;-73
2022/08/11 11:54:06;;;;;;;6.32;3.42;;;;;;;32.66;25.17;102014.13;5034172;28;20022;-74
2022/08/11 11:56:32;;;;;;;6.22;4.10;;;;;;;33.43;22.60;102007.25;5033974;28;20036;-74
2022/08/11 12:01:43;;;;;;;6.00;3.65;;;;;;;35.75;22.60;102002.16;5033378;28;20068;-74
2022/08/11 12:04:11;;;;;;;5.82;3.92;;;;;;;36.86;19.97;102003.00;5034197;28;20021;-74
2022/08/11 12:06:37;;;;;;;7.07;4.13;;;;;;;37.84;19.02;101991.22;5033493;28;20079;-74
2022/08/11 12:09:04;;;;;;;10.40;4.30;;;;;;;38.32;19.07;101988.91;5032967;28;20033;-74
2022/08/11 12:14:17;;;;;;;6.53;3.80;;;;;;;39.29;17.46;101989.28;5033496;28;20539;-74
2022/08/11 12:16:44;;;;;;;7.78;4.20;;;;;;;39.48;17.62;101989.63;5033320;28;20033;-74
2022/08/11 12:19:14;;;;;;;5.30;3.58;;;;;;;39.88;17.04;101987.97;5026037;28;20485;-74
2022/08/11 12:27:19;;;;;;;3.90;3.47;;;;;;;40.46;15.89;101990.31;5032005;28;20057;-75
2022/08/11 12:27:21;;;;;;;5.32;3.85;;;;;;;41.04;15.84;101985.19;5028836;28;20172;-75
2022/08/11 12:29:53;;;;;;;8.40;3.65;;;;;;;41.28;15.68;101980.09;5031266;28;20026;-75
2022/08/11 12:32:20;;;;;;;3.85;3.45;;;;;;;41.20;15.65;101978.41;5033271;28;20099;-74
2022/08/11 12:34:46;;;;;;;4.35;3.50;;;;;;;41.16;15.25;101972.53;5032722;28;20036;-75
2022/08/11 12:37:15;;;;;;;10.15;3.97;;;;;;;41.04;15.20;101968.78;5033349;28;20033;-75
2022/08/11 12:45:27;;;;;;;7.43;3.15;;;;;;;41.04;14.53;101941.44;5033435;28;20044;-75
2022/08/11 12:53:38;;;;;;;4.80;3.75;;;;;;;41.47;14.87;101940.09;5032883;28;20452;-73
2022/08/11 12:58:51;;;;;;;6.25;3.50;;;;;;;41.85;14.74;101935.50;5033584;28;20082;-72
2022/08/11 13:06:46;;;;;;;7.43;3.83;;;;;;;42.66;13.71;101928.53;5033247;28;20095;-73
2022/08/11 13:09:12;;;;;;;6.35;3.83;;;;;;;42.48;13.89;101922.97;5033095;28;20030;-73
2022/08/11 13:14:26;;;;;;;7.95;3.55;;;;;;;42.79;13.29;101924.88;5019846;28;20059;-73
2022/08/11 13:19:36;;;;;;;4.13;3.40;;;;;;;42.38;12.93;101922.63;5032728;28;20475;-73
2022/08/11 13:22:04;;;;;;;5.65;3.50;;;;;;;42.25;12.75;101915.31;5032623;28;20396;-73
2022/08/11 13:24:32;;;;;;;4.43;3.45;;;;;;;42.27;13.09;101915.94;5031910;28;20079;-73
2022/08/11 13:26:58;;;;;;;5.18;3.70;;;;;;;42.32;12.27;101910.69;5032901;28;20032;-73
2022/08/11 13:29:26;;;;;;;3.63;3.28;;;;;;;42.72;13.54;101905.75;5031974;28;20025;-73
2022/08/11 13:31:55;;;;;;;8.18;3.60;;;;;;;42.82;13.08;101904.41;5032156;28;20021;-73
2022/08/11 13:34:23;;;;;;;6.78;3.35;;;;;;;43.45;12.53;101899.50;5032106;28;20043;-73
2022/08/11 13:36:54;;;;;;;7.85;3.70;;;;;;;43.47;13.00;101913.84;5032506;28;20029;-73
2022/08/11 13:39:25;;;;;;;3.77;3.47;;;;;;;43.56;12.14;101910.81;5031378;28;20068;-73
2022/08/11 13:41:53;;;;;;;7.50;3.55;;;;;;;43.43;12.67;101903.53;5032813;28;20030;-73
2022/08/11 13:44:19;;;;;;;3.72;3.42;;;;;;;43.21;11.52;101901.28;5031292;28;20045;-73
2022/08/11 13:46:45;;;;;;;3.38;3.08;;;;;;;43.32;11.17;101899.66;5031952;28;20025;-73
2022/08/11 13:49:15;;;;;;;4.70;3.45;;;;;;;43.54;12.63;101891.00;5032633;28;20056;-73
2022/08/11 13:51:41;;;;;;;4.78;3.13;;;;;;;44.02;11.37;101895.63;5031723;28;20136;-73
2022/08/11 13:54:17;;;;;;;5.45;3.38;;;;;;;43.87;11.89;101899.63;5031894;28;20021;-73
2022/08/11 13:56:45;;;;;;;5.47;3.30;;;;;;;43.84;12.11;101886.34;5031847;28;20048;-73
2022/08/11 13:59:12;;;;;;;4.35;3.55;;;;;;;43.99;11.95;101887.88;5032011;28;20032;-73
2022/08/11 14:01:41;;;;;;;4.25;3.83;;;;;;;44.33;12.36;101883.56;5031799;28;20037;-73
2022/08/11 14:04:10;;;;;;;4.38;3.40;;;;;;;44.34;11.35;101894.31;5032101;28;20025;-73
2022/08/11 14:06:39;;;;;;;3.95;3.40;;;;;;;44.48;10.59;101891.38;5031005;28;20448;-73
2022/08/11 14:09:08;;;;;;;7.20;3.60;;;;;;;44.29;11.50;101877.69;5031864;28;20022;-73
2022/08/11 14:14:23;;;;;;;4.20;3.75;;;;;;;44.19;10.79;101868.34;5017573;28;20072;-73
2022/08/11 14:16:52;;;;;;;4.80;3.53;;;;;;;44.24;10.83;101869.28;5032149;28;20033;-73
2022/08/11 14:19:21;;;;;;;4.07;3.67;;;;;;;44.37;12.75;101874.59;5031030;28;20053;-73
2022/08/11 14:22:09;;;;;;;4.40;3.70;;;;;;;44.20;12.07;101867.25;5031416;28;20462;-73
2022/08/11 14:24:48;;;;;;;5.03;3.80;;;;;;;44.61;11.62;101864.47;5018521;28;20118;-73
2022/08/11 14:27:15;;;;;;;5.93;3.55;;;;;;;44.40;12.17;101863.13;5031741;28;20025;-73
2022/08/11 14:29:42;;;;;;;6.95;3.70;;;;;;;44.34;11.26;101858.59;5031611;28;20021;-73
2022/08/11 14:32:09;;;;;;;5.50;3.88;;;;;;;44.00;11.55;101862.09;5031537;28;20049;-73
2022/08/11 14:34:38;;;;;;;5.68;3.38;;;;;;;43.92;10.31;101855.84;5030684;28;20063;-73
2022/08/11 14:37:09;;;;;;;8.38;3.70;;;;;;;43.79;10.29;101857.91;5031909;28;20112;-73
2022/08/11 14:39:41;;;;;;;4.43;3.22;;;;;;;43.95;12.27;101854.53;5031007;28;20431;-73
2022/08/11 14:47:42;;;;;;;6.05;4.05;;;;;;;44.72;11.40;101848.25;5031248;28;20083;-73
2022/08/11 14:50:16;;;;;;;4.20;3.40;;;;;;;44.82;11.50;101853.97;5031128;28;20018;-73
2022/08/11 14:52:47;;;;;;;6.00;3.92;;;;;;;44.63;11.57;101851.31;5031662;28;20112;-73
2022/08/11 14:57:59;;;;;;;6.70;3.95;;;;;;;44.95;11.89;101841.88;5032039;28;20053;-73
2022/08/11 15:00:25;;;;;;;5.53;3.78;;;;;;;44.90;11.60;101837.09;5030797;28;20101;-73
2022/08/11 15:03:10;;;;;;;5.20;3.40;;;;;;;44.71;10.73;101833.66;5031412;28;20100;-73
2022/08/11 15:05:42;;;;;;;6.53;4.10;;;;;;;45.09;11.54;101833.13;5034688;28;20151;-73
2022/08/11 15:08:08;;;;;;;4.10;3.80;;;;;;;45.14;11.98;101835.16;5035517;28;20366;-73
2022/08/11 15:10:35;;;;;;;6.90;3.72;;;;;;;44.83;11.00;101828.97;5034311;28;20694;-73
2022/08/11 15:13:01;;;;;;;5.70;3.80;;;;;;;44.99;11.49;101829.31;5035277;28;20492;-73
2022/08/11 15:18:16;;;;;;;5.90;4.50;;;;;;;44.57;10.79;101823.94;5035023;28;20437;-73
2022/08/11 15:37:36;;;;;;;7.60;4.25;;;;;;;45.51;10.75;101816.38;5036770;28;20076;-72
2022/08/11 15:46:01;;;;;;;5.38;4.00;;;;;;;45.33;10.46;101802.81;5029246;28;20047;-73
2022/08/11 15:48:34;;;;;;;5.85;3.72;;;;;;;45.74;9.99;101790.66;5034498;28;20037;-73
2022/08/11 15:51:16;;;;;;;8.68;3.60;;;;;;;45.68;10.96;101796.31;5034437;28;20072;-73
2022/08/11 15:53:57;;;;;;;;;;;;;;;46.27;10.17;101799.56;5032324;28;20611;-73
2022/08/11 15:56:24;;;;;;;5.75;3.55;;;;;;;44.71;10.64;101792.41;5033783;28;19990;-72
2022/08/11 16:04:28;;;;;;;4.85;3.38;;;;;;;45.04;10.25;101785.41;5040174;28;20070;-73
2022/08/11 16:07:02;;;;;;;4.78;3.35;;;;;;;45.13;10.00;101778.47;5052651;28;20029;-73
2022/08/11 16:09:43;;;;;;;6.90;3.80;;;;;;;44.83;10.43;101787.72;5036935;28;20044;-72
2022/08/11 16:12:13;;;;;;;4.82;3.33;;;;;;;43.79;10.61;101786.50;5026629;28;20024;-72
2022/08/11 16:17:29;;;;;;;4.22;3.67;;;;;;;39.91;13.90;101787.44;5040453;28;20087;-72
2022/08/11 16:19:56;;;;;;;6.90;3.30;;;;;;;38.63;13.83;101785.13;5039803;28;20496;-72
2022/08/11 16:22:41;;;;;;;3.67;3.25;;;;;;;37.52;15.03;101777.56;5053155;28;20427;-71
2022/08/11 16:25:10;;;;;;;6.82;3.00;;;;;;;36.61;15.40;101776.88;5049862;28;20061;-71
2022/08/11 16:27:48;;;;;;;10.40;3.55;;;;;;;37.12;16.03;101777.88;5045327;28;20041;-71
2022/08/11 16:30:14;;;;;;;8.30;3.30;;;;;;;37.44;15.64;101770.31;5047744;28;20028;-71
2022/08/11 16:32:43;;;;;;;4.00;3.45;;;;;;;36.46;16.67;101776.81;5044337;28;20030;-71
2022/08/11 16:40:41;;;;;;;3.75;3.05;;;;;;;34.14;19.95;101770.78;5032625;28;20087;-71